sensor_id;sensor_type;location;lat;lon;timestamp;P1;durP1;ratioP1;P2;durP2;ratioP2
73919;SDS011;62266;53.348;-1.496;2022-08-01T00:00:24;2.50;;;1.00;;
73919;SDS011;62266;53.348;-1.496;2022-08-01T00:02:51;3.45;;;1.20;;
73919;SDS011;62266;53.348;-1.496;2022-08-01T00:05:17;2.20;;;1.00;;
73919;SDS011;62266;53.348;-1.496;2022-08-01T00:07:42;3.93;;;1.20;;
73919;SDS011;62266;53.348;-1.496;2022-08-01T00:10:11;3.35;;;1.50;;
73919;SDS011;62266;53.348;-1.496;2022-08-01T00:12:38;3.15;;;1.10;;
73919;SDS011;62266;53.348;-1.496;2022-08-01T00:15:06;3.33;;;1.00;;
73919;SDS011;62266;53.348;-1.496;2022-08-01T00:17:32;6.60;;;1.35;;
73919;SDS011;62266;53.348;-1.496;2022-08-01T00:19:58;2.15;;;1.13;;
73919;SDS011;62266;53.348;-1.496;2022-08-01T00:22:24;5.37;;;1.53;;
73919;SDS011;62266;53.348;-1.496;2022-08-01T00:24:50;4.20;;;1.00;;
73919;SDS011;62266;53.348;-1.496;2022-08-01T00:27:15;3.10;;;1.17;;
73919;SDS011;62266;53.348;-1.496;2022-08-01T00:29:44;4.80;;;1.40;;
73919;SDS011;62266;53.348;-1.496;2022-08-01T00:32:09;5.32;;;1.20;;
73919;SDS011;62266;53.348;-1.496;2022-08-01T00:34:35;5.07;;;1.00;;
73919;SDS011;62266;53.348;-1.496;2022-08-01T00:37:00;3.60;;;1.40;;
73919;SDS011;62266;53.348;-1.496;2022-08-01T00:39:26;3.83;;;1.15;;
73919;SDS011;62266;53.348;-1.496;2022-08-01T00:41:51;5.93;;;1.50;;
73919;SDS011;62266;53.348;-1.496;2022-08-01T00:44:17;5.20;;;1.50;;
73919;SDS011;62266;53.348;-1.496;2022-08-01T00:46:42;3.53;;;1.35;;
73919;SDS011;62266;53.348;-1.496;2022-08-01T00:49:08;4.40;;;1.40;;
73919;SDS011;62266;53.348;-1.496;2022-08-01T00:51:34;4.43;;;1.45;;
73919;SDS011;62266;53.348;-1.496;2022-08-01T00:54:00;5.90;;;1.75;;
73919;SDS011;62266;53.348;-1.496;2022-08-01T00:56:26;4.33;;;1.40;;
73919;SDS011;62266;53.348;-1.496;2022-08-01T00:58:53;4.97;;;1.25;;
73919;SDS011;62266;53.348;-1.496;2022-08-01T01:01:19;4.35;;;1.40;;
73919;SDS011;62266;53.348;-1.496;2022-08-01T01:03:48;4.32;;;1.30;;
73919;SDS011;62266;53.348;-1.496;2022-08-01T01:08:58;5.57;;;1.50;;
73919;SDS011;62266;53.348;-1.496;2022-08-01T01:14:44;4.95;;;1.83;;
73919;SDS011;62266;53.348;-1.496;2022-08-01T01:17:26;5.25;;;1.42;;
73919;SDS011;62266;53.348;-1.496;2022-08-01T01:19:54;5.20;;;1.60;;
73919;SDS011;62266;53.348;-1.496;2022-08-01T01:31:42;4.75;;;1.40;;
73919;SDS011;62266;53.348;-1.496;2022-08-01T01:34:11;3.67;;;1.20;;
73919;SDS011;62266;53.348;-1.496;2022-08-01T01:36:38;2.40;;;1.23;;
73919;SDS011;62266;53.348;-1.496;2022-08-01T01:39:04;4.10;;;1.42;;
73919;SDS011;62266;53.348;-1.496;2022-08-01T01:41:32;4.25;;;1.40;;
73919;SDS011;62266;53.348;-1.496;2022-08-01T01:43:58;3.25;;;1.40;;
73919;SDS011;62266;53.348;-1.496;2022-08-01T01:46:25;6.78;;;1.52;;
73919;SDS011;62266;53.348;-1.496;2022-08-01T01:48:53;5.43;;;1.40;;
73919;SDS011;62266;53.348;-1.496;2022-08-01T01:51:20;6.47;;;1.63;;
73919;SDS011;62266;53.348;-1.496;2022-08-01T01:53:46;8.40;;;1.50;;
73919;SDS011;62266;53.348;-1.496;2022-08-01T01:56:14;6.35;;;1.48;;
73919;SDS011;62266;53.348;-1.496;2022-08-01T01:58:40;3.80;;;1.25;;
73919;SDS011;62266;53.348;-1.496;2022-08-01T02:01:06;3.23;;;1.40;;
73919;SDS011;62266;53.348;-1.496;2022-08-01T02:03:34;5.20;;;1.27;;
73919;SDS011;62266;53.348;-1.496;2022-08-01T02:06:01;4.80;;;1.45;;
73919;SDS011;62266;53.348;-1.496;2022-08-01T02:08:28;4.32;;;1.60;;
73919;SDS011;62266;53.348;-1.496;2022-08-01T02:10:55;3.80;;;1.45;;
73919;SDS011;62266;53.348;-1.496;2022-08-01T02:13:52;3.73;;;1.40;;
73919;SDS011;62266;53.348;-1.496;2022-08-01T02:16:20;1.80;;;1.10;;
73919;SDS011;62266;53.348;-1.496;2022-08-01T02:18:47;3.05;;;1.23;;
73919;SDS011;62266;53.348;-1.496;2022-08-01T02:21:13;5.05;;;1.63;;
73919;SDS011;62266;53.348;-1.496;2022-08-01T02:23:42;2.97;;;1.53;;
73919;SDS011;62266;53.348;-1.496;2022-08-01T02:26:13;4.50;;;1.48;;
73919;SDS011;62266;53.348;-1.496;2022-08-01T02:28:45;2.20;;;1.25;;
73919;SDS011;62266;53.348;-1.496;2022-08-01T02:31:12;4.68;;;1.30;;
73919;SDS011;62266;53.348;-1.496;2022-08-01T02:33:43;5.38;;;1.70;;
73919;SDS011;62266;53.348;-1.496;2022-08-01T02:36:11;5.47;;;1.40;;
73919;SDS011;62266;53.348;-1.496;2022-08-01T02:38:39;3.30;;;1.38;;
73919;SDS011;62266;53.348;-1.496;2022-08-01T02:41:11;5.60;;;1.77;;
73919;SDS011;62266;53.348;-1.496;2022-08-01T02:43:43;4.25;;;1.50;;
73919;SDS011;62266;53.348;-1.496;2022-08-01T02:46:13;5.05;;;1.80;;
73919;SDS011;62266;53.348;-1.496;2022-08-01T02:48:42;5.10;;;1.30;;
73919;SDS011;62266;53.348;-1.496;2022-08-01T02:51:09;3.95;;;1.50;;
73919;SDS011;62266;53.348;-1.496;2022-08-01T02:53:38;3.13;;;1.40;;
73919;SDS011;62266;53.348;-1.496;2022-08-01T02:56:07;3.90;;;1.50;;
73919;SDS011;62266;53.348;-1.496;2022-08-01T02:58:33;5.93;;;1.60;;
73919;SDS011;62266;53.348;-1.496;2022-08-01T03:01:01;4.00;;;1.30;;
73919;SDS011;62266;53.348;-1.496;2022-08-01T03:03:27;4.22;;;2.08;;
73919;SDS011;62266;53.348;-1.496;2022-08-01T03:05:54;4.72;;;1.60;;
73919;SDS011;62266;53.348;-1.496;2022-08-01T03:08:19;2.80;;;1.37;;
73919;SDS011;62266;53.348;-1.496;2022-08-01T03:10:46;6.20;;;1.67;;
73919;SDS011;62266;53.348;-1.496;2022-08-01T03:13:12;5.28;;;1.70;;
73919;SDS011;62266;53.348;-1.496;2022-08-01T03:15:39;4.95;;;1.40;;
73919;SDS011;62266;53.348;-1.496;2022-08-01T03:18:06;3.55;;;1.40;;
73919;SDS011;62266;53.348;-1.496;2022-08-01T03:20:33;5.87;;;1.60;;
73919;SDS011;62266;53.348;-1.496;2022-08-01T03:23:00;3.30;;;1.55;;
73919;SDS011;62266;53.348;-1.496;2022-08-01T03:25:28;6.32;;;1.40;;
73919;SDS011;62266;53.348;-1.496;2022-08-01T03:27:55;3.53;;;1.58;;
73919;SDS011;62266;53.348;-1.496;2022-08-01T03:30:22;6.88;;;1.70;;
73919;SDS011;62266;53.348;-1.496;2022-08-01T03:32:48;6.90;;;1.53;;
73919;SDS011;62266;53.348;-1.496;2022-08-01T03:35:14;3.30;;;1.33;;
73919;SDS011;62266;53.348;-1.496;2022-08-01T03:37:47;4.30;;;1.80;;
73919;SDS011;62266;53.348;-1.496;2022-08-01T03:42:45;4.57;;;1.60;;
73919;SDS011;62266;53.348;-1.496;2022-08-01T03:45:18;7.72;;;2.33;;
73919;SDS011;62266;53.348;-1.496;2022-08-01T03:47:47;6.55;;;1.95;;
73919;SDS011;62266;53.348;-1.496;2022-08-01T03:50:14;3.97;;;1.50;;
73919;SDS011;62266;53.348;-1.496;2022-08-01T03:52:43;3.60;;;1.30;;
73919;SDS011;62266;53.348;-1.496;2022-08-01T03:55:11;4.20;;;1.77;;
73919;SDS011;62266;53.348;-1.496;2022-08-01T03:57:37;5.70;;;1.60;;
73919;SDS011;62266;53.348;-1.496;2022-08-01T04:00:05;5.78;;;1.83;;
73919;SDS011;62266;53.348;-1.496;2022-08-01T04:02:33;5.70;;;1.80;;
73919;SDS011;62266;53.348;-1.496;2022-08-01T04:04:59;4.28;;;1.90;;
73919;SDS011;62266;53.348;-1.496;2022-08-01T04:07:26;6.25;;;1.80;;
73919;SDS011;62266;53.348;-1.496;2022-08-01T04:09:53;2.97;;;1.33;;
73919;SDS011;62266;53.348;-1.496;2022-08-01T04:12:19;5.18;;;1.83;;
73919;SDS011;62266;53.348;-1.496;2022-08-01T04:14:45;3.47;;;1.40;;
73919;SDS011;62266;53.348;-1.496;2022-08-01T04:17:12;6.85;;;1.85;;
73919;SDS011;62266;53.348;-1.496;2022-08-01T04:19:38;6.00;;;1.90;;
73919;SDS011;62266;53.348;-1.496;2022-08-01T04:22:04;7.93;;;1.77;;
73919;SDS011;62266;53.348;-1.496;2022-08-01T04:24:30;6.25;;;1.83;;
73919;SDS011;62266;53.348;-1.496;2022-08-01T04:26:58;8.37;;;1.83;;
73919;SDS011;62266;53.348;-1.496;2022-08-01T04:29:25;5.25;;;1.67;;
73919;SDS011;62266;53.348;-1.496;2022-08-01T04:31:52;5.95;;;1.95;;
73919;SDS011;62266;53.348;-1.496;2022-08-01T04:34:20;6.63;;;1.70;;
73919;SDS011;62266;53.348;-1.496;2022-08-01T04:36:47;5.47;;;1.92;;
73919;SDS011;62266;53.348;-1.496;2022-08-01T04:39:14;3.80;;;1.80;;
73919;SDS011;62266;53.348;-1.496;2022-08-01T04:41:42;5.43;;;2.00;;
73919;SDS011;62266;53.348;-1.496;2022-08-01T04:44:09;6.88;;;2.13;;
73919;SDS011;62266;53.348;-1.496;2022-08-01T04:46:36;6.88;;;1.55;;
73919;SDS011;62266;53.348;-1.496;2022-08-01T04:49:04;7.15;;;1.67;;
73919;SDS011;62266;53.348;-1.496;2022-08-01T04:51:31;8.13;;;1.60;;
73919;SDS011;62266;53.348;-1.496;2022-08-01T04:53:57;4.95;;;1.80;;
73919;SDS011;62266;53.348;-1.496;2022-08-01T04:56:23;6.45;;;1.70;;
73919;SDS011;62266;53.348;-1.496;2022-08-01T04:58:49;4.93;;;1.50;;
73919;SDS011;62266;53.348;-1.496;2022-08-01T05:01:34;5.13;;;1.52;;
73919;SDS011;62266;53.348;-1.496;2022-08-01T05:04:02;8.90;;;1.58;;
73919;SDS011;62266;53.348;-1.496;2022-08-01T05:06:29;7.70;;;1.63;;
73919;SDS011;62266;53.348;-1.496;2022-08-01T05:08:56;4.70;;;1.55;;
73919;SDS011;62266;53.348;-1.496;2022-08-01T05:11:22;6.07;;;1.95;;
73919;SDS011;62266;53.348;-1.496;2022-08-01T05:13:48;7.10;;;2.07;;
73919;SDS011;62266;53.348;-1.496;2022-08-01T05:16:14;4.47;;;1.48;;
73919;SDS011;62266;53.348;-1.496;2022-08-01T05:18:40;3.27;;;1.50;;
73919;SDS011;62266;53.348;-1.496;2022-08-01T05:21:06;4.05;;;1.40;;
73919;SDS011;62266;53.348;-1.496;2022-08-01T05:23:32;7.00;;;1.92;;
73919;SDS011;62266;53.348;-1.496;2022-08-01T05:25:58;3.38;;;1.50;;
73919;SDS011;62266;53.348;-1.496;2022-08-01T05:28:23;5.73;;;1.43;;
73919;SDS011;62266;53.348;-1.496;2022-08-01T05:30:49;5.60;;;1.60;;
73919;SDS011;62266;53.348;-1.496;2022-08-01T05:33:14;4.78;;;1.70;;
73919;SDS011;62266;53.348;-1.496;2022-08-01T05:35:40;6.77;;;1.53;;
73919;SDS011;62266;53.348;-1.496;2022-08-01T05:38:06;7.70;;;1.48;;
73919;SDS011;62266;53.348;-1.496;2022-08-01T05:40:31;3.20;;;1.43;;
73919;SDS011;62266;53.348;-1.496;2022-08-01T05:42:57;5.47;;;1.47;;
73919;SDS011;62266;53.348;-1.496;2022-08-01T05:45:22;6.05;;;1.65;;
73919;SDS011;62266;53.348;-1.496;2022-08-01T05:47:48;6.27;;;2.07;;
73919;SDS011;62266;53.348;-1.496;2022-08-01T05:50:13;6.40;;;1.50;;
73919;SDS011;62266;53.348;-1.496;2022-08-01T05:52:39;7.67;;;1.90;;
73919;SDS011;62266;53.348;-1.496;2022-08-01T05:55:05;5.40;;;1.60;;
73919;SDS011;62266;53.348;-1.496;2022-08-01T05:57:31;5.70;;;1.70;;
73919;SDS011;62266;53.348;-1.496;2022-08-01T05:59:56;4.30;;;1.45;;
73919;SDS011;62266;53.348;-1.496;2022-08-01T06:02:22;7.30;;;1.70;;
73919;SDS011;62266;53.348;-1.496;2022-08-01T06:04:48;3.55;;;1.30;;
73919;SDS011;62266;53.348;-1.496;2022-08-01T06:07:13;5.23;;;1.70;;
73919;SDS011;62266;53.348;-1.496;2022-08-01T06:09:40;3.15;;;1.23;;
73919;SDS011;62266;53.348;-1.496;2022-08-01T06:12:05;3.88;;;1.63;;
73919;SDS011;62266;53.348;-1.496;2022-08-01T06:14:31;2.33;;;1.00;;
73919;SDS011;62266;53.348;-1.496;2022-08-01T06:16:57;5.45;;;1.23;;
73919;SDS011;62266;53.348;-1.496;2022-08-01T06:19:23;4.40;;;1.08;;
73919;SDS011;62266;53.348;-1.496;2022-08-01T06:21:49;6.30;;;1.00;;
73919;SDS011;62266;53.348;-1.496;2022-08-01T06:24:14;3.40;;;1.00;;
73919;SDS011;62266;53.348;-1.496;2022-08-01T06:26:40;3.72;;;1.08;;
73919;SDS011;62266;53.348;-1.496;2022-08-01T06:29:05;3.97;;;1.07;;
73919;SDS011;62266;53.348;-1.496;2022-08-01T06:31:31;7.10;;;1.37;;
73919;SDS011;62266;53.348;-1.496;2022-08-01T06:33:56;2.83;;;1.07;;
73919;SDS011;62266;53.348;-1.496;2022-08-01T06:36:22;8.37;;;1.33;;
73919;SDS011;62266;53.348;-1.496;2022-08-01T06:38:47;5.03;;;1.20;;
73919;SDS011;62266;53.348;-1.496;2022-08-01T06:41:13;4.80;;;1.00;;
73919;SDS011;62266;53.348;-1.496;2022-08-01T06:43:39;5.30;;;0.90;;
73919;SDS011;62266;53.348;-1.496;2022-08-01T06:46:05;3.55;;;1.02;;
73919;SDS011;62266;53.348;-1.496;2022-08-01T06:48:31;2.47;;;1.10;;
73919;SDS011;62266;53.348;-1.496;2022-08-01T06:50:56;3.70;;;1.42;;
73919;SDS011;62266;53.348;-1.496;2022-08-01T06:53:37;4.63;;;0.97;;
73919;SDS011;62266;53.348;-1.496;2022-08-01T06:56:03;5.10;;;1.20;;
73919;SDS011;62266;53.348;-1.496;2022-08-01T06:58:30;7.13;;;1.15;;
73919;SDS011;62266;53.348;-1.496;2022-08-01T07:00:56;4.45;;;0.90;;
73919;SDS011;62266;53.348;-1.496;2022-08-01T07:03:21;2.57;;;0.93;;
73919;SDS011;62266;53.348;-1.496;2022-08-01T07:05:47;3.53;;;1.00;;
73919;SDS011;62266;53.348;-1.496;2022-08-01T07:08:13;3.65;;;1.20;;
73919;SDS011;62266;53.348;-1.496;2022-08-01T07:10:39;3.90;;;0.87;;
73919;SDS011;62266;53.348;-1.496;2022-08-01T07:13:05;3.13;;;1.10;;
73919;SDS011;62266;53.348;-1.496;2022-08-01T07:15:31;2.27;;;1.00;;
73919;SDS011;62266;53.348;-1.496;2022-08-01T07:17:57;2.65;;;0.98;;
73919;SDS011;62266;53.348;-1.496;2022-08-01T07:20:28;4.65;;;0.82;;
73919;SDS011;62266;53.348;-1.496;2022-08-01T07:22:54;4.35;;;1.40;;
73919;SDS011;62266;53.348;-1.496;2022-08-01T07:25:20;4.70;;;1.20;;
73919;SDS011;62266;53.348;-1.496;2022-08-01T07:27:46;4.10;;;1.17;;
73919;SDS011;62266;53.348;-1.496;2022-08-01T07:30:12;6.17;;;1.30;;
73919;SDS011;62266;53.348;-1.496;2022-08-01T07:32:38;3.35;;;1.05;;
73919;SDS011;62266;53.348;-1.496;2022-08-01T07:35:04;5.65;;;0.93;;
73919;SDS011;62266;53.348;-1.496;2022-08-01T07:37:30;3.78;;;1.10;;
73919;SDS011;62266;53.348;-1.496;2022-08-01T07:42:33;4.63;;;1.13;;
73919;SDS011;62266;53.348;-1.496;2022-08-01T07:44:58;4.80;;;0.90;;
73919;SDS011;62266;53.348;-1.496;2022-08-01T07:47:24;3.20;;;0.87;;
73919;SDS011;62266;53.348;-1.496;2022-08-01T07:49:50;6.50;;;1.17;;
73919;SDS011;62266;53.348;-1.496;2022-08-01T07:52:16;3.22;;;1.00;;
73919;SDS011;62266;53.348;-1.496;2022-08-01T07:54:42;3.63;;;0.80;;
73919;SDS011;62266;53.348;-1.496;2022-08-01T07:57:08;2.60;;;0.80;;
73919;SDS011;62266;53.348;-1.496;2022-08-01T07:59:33;3.53;;;0.98;;
73919;SDS011;62266;53.348;-1.496;2022-08-01T08:01:59;5.27;;;1.20;;
73919;SDS011;62266;53.348;-1.496;2022-08-01T08:04:25;4.97;;;1.00;;
73919;SDS011;62266;53.348;-1.496;2022-08-01T08:06:51;2.00;;;0.67;;
73919;SDS011;62266;53.348;-1.496;2022-08-01T08:09:18;2.40;;;0.85;;
73919;SDS011;62266;53.348;-1.496;2022-08-01T08:11:44;2.42;;;0.77;;
73919;SDS011;62266;53.348;-1.496;2022-08-01T08:14:10;1.10;;;0.70;;
73919;SDS011;62266;53.348;-1.496;2022-08-01T08:16:37;2.13;;;1.00;;
73919;SDS011;62266;53.348;-1.496;2022-08-01T08:19:03;3.40;;;1.27;;
73919;SDS011;62266;53.348;-1.496;2022-08-01T08:21:29;4.00;;;0.80;;
73919;SDS011;62266;53.348;-1.496;2022-08-01T08:23:55;2.08;;;0.70;;
73919;SDS011;62266;53.348;-1.496;2022-08-01T08:26:39;2.20;;;0.83;;
73919;SDS011;62266;53.348;-1.496;2022-08-01T08:29:06;3.33;;;0.70;;
73919;SDS011;62266;53.348;-1.496;2022-08-01T08:31:32;2.40;;;1.05;;
73919;SDS011;62266;53.348;-1.496;2022-08-01T08:33:58;1.67;;;0.80;;
73919;SDS011;62266;53.348;-1.496;2022-08-01T08:36:24;2.90;;;0.88;;
73919;SDS011;62266;53.348;-1.496;2022-08-01T08:38:50;2.97;;;0.70;;
73919;SDS011;62266;53.348;-1.496;2022-08-01T08:41:15;2.45;;;0.75;;
73919;SDS011;62266;53.348;-1.496;2022-08-01T08:43:41;2.10;;;0.70;;
73919;SDS011;62266;53.348;-1.496;2022-08-01T08:46:07;2.35;;;0.68;;
73919;SDS011;62266;53.348;-1.496;2022-08-01T08:48:33;0.90;;;0.70;;
73919;SDS011;62266;53.348;-1.496;2022-08-01T08:51:00;2.80;;;0.70;;
73919;SDS011;62266;53.348;-1.496;2022-08-01T08:53:26;3.65;;;1.05;;
73919;SDS011;62266;53.348;-1.496;2022-08-01T08:55:52;1.65;;;0.80;;
73919;SDS011;62266;53.348;-1.496;2022-08-01T08:58:18;4.47;;;0.90;;
73919;SDS011;62266;53.348;-1.496;2022-08-01T09:00:44;3.00;;;0.87;;
73919;SDS011;62266;53.348;-1.496;2022-08-01T09:03:10;6.05;;;1.20;;
73919;SDS011;62266;53.348;-1.496;2022-08-01T09:05:35;2.67;;;0.97;;
73919;SDS011;62266;53.348;-1.496;2022-08-01T09:08:01;1.83;;;0.90;;
73919;SDS011;62266;53.348;-1.496;2022-08-01T09:10:27;2.47;;;0.90;;
73919;SDS011;62266;53.348;-1.496;2022-08-01T09:13:09;4.35;;;0.90;;
73919;SDS011;62266;53.348;-1.496;2022-08-01T09:21:09;2.92;;;0.95;;
73919;SDS011;62266;53.348;-1.496;2022-08-01T09:23:43;2.42;;;0.90;;
73919;SDS011;62266;53.348;-1.496;2022-08-01T09:26:14;2.45;;;0.90;;
73919;SDS011;62266;53.348;-1.496;2022-08-01T09:28:41;1.10;;;0.80;;
73919;SDS011;62266;53.348;-1.496;2022-08-01T09:31:08;1.27;;;0.70;;
73919;SDS011;62266;53.348;-1.496;2022-08-01T09:36:16;1.73;;;0.60;;
73919;SDS011;62266;53.348;-1.496;2022-08-01T09:38:41;1.97;;;1.00;;
73919;SDS011;62266;53.348;-1.496;2022-08-01T09:41:07;1.40;;;0.93;;
73919;SDS011;62266;53.348;-1.496;2022-08-01T09:43:33;1.30;;;0.80;;
73919;SDS011;62266;53.348;-1.496;2022-08-01T09:46:00;1.80;;;0.85;;
73919;SDS011;62266;53.348;-1.496;2022-08-01T09:48:30;5.28;;;0.85;;
73919;SDS011;62266;53.348;-1.496;2022-08-01T09:50:58;2.03;;;0.60;;
73919;SDS011;62266;53.348;-1.496;2022-08-01T09:53:24;2.08;;;0.82;;
73919;SDS011;62266;53.348;-1.496;2022-08-01T09:55:49;2.60;;;0.77;;
73919;SDS011;62266;53.348;-1.496;2022-08-01T09:58:17;2.93;;;0.87;;
73919;SDS011;62266;53.348;-1.496;2022-08-01T10:00:44;2.95;;;0.90;;
73919;SDS011;62266;53.348;-1.496;2022-08-01T10:03:24;0.95;;;0.80;;
73919;SDS011;62266;53.348;-1.496;2022-08-01T10:05:51;4.47;;;1.15;;
73919;SDS011;62266;53.348;-1.496;2022-08-01T10:08:18;1.20;;;1.00;;
73919;SDS011;62266;53.348;-1.496;2022-08-01T10:13:33;1.58;;;0.80;;
73919;SDS011;62266;53.348;-1.496;2022-08-01T10:16:00;1.83;;;0.83;;
73919;SDS011;62266;53.348;-1.496;2022-08-01T10:18:26;1.37;;;0.87;;
73919;SDS011;62266;53.348;-1.496;2022-08-01T10:20:54;3.53;;;0.98;;
73919;SDS011;62266;53.348;-1.496;2022-08-01T10:23:19;1.23;;;0.88;;
73919;SDS011;62266;53.348;-1.496;2022-08-01T10:25:46;1.58;;;0.90;;
73919;SDS011;62266;53.348;-1.496;2022-08-01T10:28:16;1.77;;;0.70;;
73919;SDS011;62266;53.348;-1.496;2022-08-01T10:30:42;2.53;;;1.00;;
73919;SDS011;62266;53.348;-1.496;2022-08-01T10:33:09;2.25;;;0.98;;
73919;SDS011;62266;53.348;-1.496;2022-08-01T10:35:36;1.05;;;0.70;;
73919;SDS011;62266;53.348;-1.496;2022-08-01T10:38:03;2.42;;;0.50;;
73919;SDS011;62266;53.348;-1.496;2022-08-01T10:40:28;5.30;;;1.30;;
73919;SDS011;62266;53.348;-1.496;2022-08-01T10:42:54;1.00;;;0.82;;
73919;SDS011;62266;53.348;-1.496;2022-08-01T10:45:21;1.38;;;0.73;;
73919;SDS011;62266;53.348;-1.496;2022-08-01T10:47:53;3.60;;;1.20;;
73919;SDS011;62266;53.348;-1.496;2022-08-01T10:53:17;3.42;;;1.40;;
73919;SDS011;62266;53.348;-1.496;2022-08-01T10:55:44;3.22;;;1.23;;
73919;SDS011;62266;53.348;-1.496;2022-08-01T10:58:24;3.35;;;0.93;;
73919;SDS011;62266;53.348;-1.496;2022-08-01T11:04:04;3.00;;;0.85;;
73919;SDS011;62266;53.348;-1.496;2022-08-01T11:14:23;2.97;;;0.80;;
73919;SDS011;62266;53.348;-1.496;2022-08-01T11:16:49;3.28;;;1.30;;
73919;SDS011;62266;53.348;-1.496;2022-08-01T11:19:14;2.87;;;1.00;;
73919;SDS011;62266;53.348;-1.496;2022-08-01T11:29:41;3.30;;;1.10;;
73919;SDS011;62266;53.348;-1.496;2022-08-01T11:32:23;3.08;;;0.90;;
73919;SDS011;62266;53.348;-1.496;2022-08-01T11:34:54;2.03;;;0.65;;
73919;SDS011;62266;53.348;-1.496;2022-08-01T11:37:24;5.88;;;1.33;;
73919;SDS011;62266;53.348;-1.496;2022-08-01T11:45:48;1.95;;;0.80;;
73919;SDS011;62266;53.348;-1.496;2022-08-01T11:48:23;2.00;;;0.88;;
73919;SDS011;62266;53.348;-1.496;2022-08-01T11:50:54;1.90;;;0.60;;
73919;SDS011;62266;53.348;-1.496;2022-08-01T11:53:20;2.28;;;0.57;;
73919;SDS011;62266;53.348;-1.496;2022-08-01T11:55:47;2.23;;;0.70;;
73919;SDS011;62266;53.348;-1.496;2022-08-01T11:58:15;1.35;;;0.80;;
73919;SDS011;62266;53.348;-1.496;2022-08-01T12:00:42;1.77;;;0.80;;
73919;SDS011;62266;53.348;-1.496;2022-08-01T12:03:15;2.45;;;0.88;;
73919;SDS011;62266;53.348;-1.496;2022-08-01T12:05:43;2.27;;;0.70;;
73919;SDS011;62266;53.348;-1.496;2022-08-01T12:08:09;1.15;;;0.80;;
73919;SDS011;62266;53.348;-1.496;2022-08-01T12:10:34;1.85;;;1.00;;
73919;SDS011;62266;53.348;-1.496;2022-08-01T12:13:05;3.85;;;1.02;;
73919;SDS011;62266;53.348;-1.496;2022-08-01T12:15:36;2.53;;;0.90;;
73919;SDS011;62266;53.348;-1.496;2022-08-01T12:18:03;2.35;;;0.90;;
73919;SDS011;62266;53.348;-1.496;2022-08-01T12:20:31;1.60;;;0.90;;
73919;SDS011;62266;53.348;-1.496;2022-08-01T12:23:02;2.53;;;1.15;;
73919;SDS011;62266;53.348;-1.496;2022-08-01T12:25:33;2.45;;;0.88;;
73919;SDS011;62266;53.348;-1.496;2022-08-01T12:28:00;7.83;;;1.20;;
73919;SDS011;62266;53.348;-1.496;2022-08-01T12:30:27;2.35;;;1.35;;
73919;SDS011;62266;53.348;-1.496;2022-08-01T12:32:56;1.40;;;0.90;;
73919;SDS011;62266;53.348;-1.496;2022-08-01T12:35:23;2.17;;;0.98;;
73919;SDS011;62266;53.348;-1.496;2022-08-01T12:37:52;1.58;;;1.02;;
73919;SDS011;62266;53.348;-1.496;2022-08-01T12:42:55;2.72;;;1.52;;
73919;SDS011;62266;53.348;-1.496;2022-08-01T12:45:34;2.50;;;1.30;;
73919;SDS011;62266;53.348;-1.496;2022-08-01T12:48:00;6.18;;;1.50;;
73919;SDS011;62266;53.348;-1.496;2022-08-01T12:50:28;1.30;;;1.00;;
73919;SDS011;62266;53.348;-1.496;2022-08-01T12:52:55;1.97;;;1.27;;
73919;SDS011;62266;53.348;-1.496;2022-08-01T12:55:21;3.03;;;1.17;;
73919;SDS011;62266;53.348;-1.496;2022-08-01T12:57:50;2.03;;;1.10;;
73919;SDS011;62266;53.348;-1.496;2022-08-01T13:00:28;2.85;;;1.52;;
73919;SDS011;62266;53.348;-1.496;2022-08-01T13:03:04;4.15;;;1.60;;
73919;SDS011;62266;53.348;-1.496;2022-08-01T13:05:53;3.27;;;1.10;;
73919;SDS011;62266;53.348;-1.496;2022-08-01T13:08:26;2.10;;;1.13;;
73919;SDS011;62266;53.348;-1.496;2022-08-01T13:11:02;3.25;;;1.17;;
73919;SDS011;62266;53.348;-1.496;2022-08-01T13:13:38;2.50;;;1.33;;
73919;SDS011;62266;53.348;-1.496;2022-08-01T13:16:05;2.53;;;1.02;;
73919;SDS011;62266;53.348;-1.496;2022-08-01T13:18:33;1.73;;;1.07;;
73919;SDS011;62266;53.348;-1.496;2022-08-01T13:21:13;2.65;;;0.98;;
73919;SDS011;62266;53.348;-1.496;2022-08-01T13:23:41;1.70;;;1.20;;
73919;SDS011;62266;53.348;-1.496;2022-08-01T13:26:08;1.75;;;0.93;;
73919;SDS011;62266;53.348;-1.496;2022-08-01T13:28:34;1.33;;;0.77;;
73919;SDS011;62266;53.348;-1.496;2022-08-01T13:33:42;2.22;;;0.90;;
73919;SDS011;62266;53.348;-1.496;2022-08-01T13:36:09;3.67;;;1.10;;
73919;SDS011;62266;53.348;-1.496;2022-08-01T13:38:35;3.17;;;1.27;;
73919;SDS011;62266;53.348;-1.496;2022-08-01T13:41:22;1.20;;;0.73;;
73919;SDS011;62266;53.348;-1.496;2022-08-01T13:43:51;1.08;;;0.80;;
73919;SDS011;62266;53.348;-1.496;2022-08-01T13:46:21;2.38;;;1.00;;
73919;SDS011;62266;53.348;-1.496;2022-08-01T13:48:46;2.53;;;0.87;;
73919;SDS011;62266;53.348;-1.496;2022-08-01T13:51:13;2.22;;;1.00;;
73919;SDS011;62266;53.348;-1.496;2022-08-01T13:53:38;2.27;;;0.90;;
73919;SDS011;62266;53.348;-1.496;2022-08-01T13:56:10;1.30;;;0.88;;
73919;SDS011;62266;53.348;-1.496;2022-08-01T13:58:36;1.10;;;0.73;;
73919;SDS011;62266;53.348;-1.496;2022-08-01T14:01:02;1.92;;;0.90;;
73919;SDS011;62266;53.348;-1.496;2022-08-01T14:03:31;3.22;;;1.30;;
73919;SDS011;62266;53.348;-1.496;2022-08-01T14:05:56;2.20;;;0.90;;
73919;SDS011;62266;53.348;-1.496;2022-08-01T14:08:25;1.38;;;0.90;;
73919;SDS011;62266;53.348;-1.496;2022-08-01T14:10:54;1.33;;;0.70;;
73919;SDS011;62266;53.348;-1.496;2022-08-01T14:13:33;3.00;;;1.00;;
73919;SDS011;62266;53.348;-1.496;2022-08-01T14:16:02;1.45;;;0.75;;
73919;SDS011;62266;53.348;-1.496;2022-08-01T14:18:27;1.03;;;0.80;;
73919;SDS011;62266;53.348;-1.496;2022-08-01T14:20:53;2.65;;;0.85;;
73919;SDS011;62266;53.348;-1.496;2022-08-01T14:23:19;2.73;;;0.80;;
73919;SDS011;62266;53.348;-1.496;2022-08-01T14:25:44;1.83;;;0.90;;
73919;SDS011;62266;53.348;-1.496;2022-08-01T14:28:13;3.00;;;1.10;;
73919;SDS011;62266;53.348;-1.496;2022-08-01T14:30:38;1.15;;;0.80;;
73919;SDS011;62266;53.348;-1.496;2022-08-01T14:33:04;2.13;;;1.00;;
73919;SDS011;62266;53.348;-1.496;2022-08-01T14:35:29;3.42;;;1.13;;
73919;SDS011;62266;53.348;-1.496;2022-08-01T14:37:55;2.05;;;0.90;;
73919;SDS011;62266;53.348;-1.496;2022-08-01T14:40:21;1.30;;;1.00;;
73919;SDS011;62266;53.348;-1.496;2022-08-01T14:42:49;2.72;;;1.23;;
73919;SDS011;62266;53.348;-1.496;2022-08-01T14:45:14;2.77;;;1.03;;
73919;SDS011;62266;53.348;-1.496;2022-08-01T14:47:41;1.00;;;0.90;;
73919;SDS011;62266;53.348;-1.496;2022-08-01T14:50:11;1.27;;;0.98;;
73919;SDS011;62266;53.348;-1.496;2022-08-01T14:52:38;2.30;;;0.77;;
73919;SDS011;62266;53.348;-1.496;2022-08-01T14:55:06;1.60;;;0.88;;
73919;SDS011;62266;53.348;-1.496;2022-08-01T14:57:33;1.90;;;1.02;;
73919;SDS011;62266;53.348;-1.496;2022-08-01T15:00:03;1.90;;;1.10;;
73919;SDS011;62266;53.348;-1.496;2022-08-01T15:02:30;1.38;;;0.77;;
73919;SDS011;62266;53.348;-1.496;2022-08-01T15:04:55;6.40;;;1.00;;
73919;SDS011;62266;53.348;-1.496;2022-08-01T15:07:21;1.80;;;1.00;;
73919;SDS011;62266;53.348;-1.496;2022-08-01T15:09:49;1.98;;;0.80;;
73919;SDS011;62266;53.348;-1.496;2022-08-01T15:12:15;1.67;;;1.00;;
73919;SDS011;62266;53.348;-1.496;2022-08-01T15:14:44;1.85;;;1.05;;
73919;SDS011;62266;53.348;-1.496;2022-08-01T15:17:25;1.17;;;0.83;;
73919;SDS011;62266;53.348;-1.496;2022-08-01T15:19:57;1.73;;;0.90;;
73919;SDS011;62266;53.348;-1.496;2022-08-01T15:22:24;1.90;;;0.90;;
73919;SDS011;62266;53.348;-1.496;2022-08-01T15:24:55;1.00;;;0.82;;
73919;SDS011;62266;53.348;-1.496;2022-08-01T15:27:21;1.83;;;0.85;;
73919;SDS011;62266;53.348;-1.496;2022-08-01T15:29:56;1.30;;;0.90;;
73919;SDS011;62266;53.348;-1.496;2022-08-01T15:32:22;3.17;;;1.00;;
73919;SDS011;62266;53.348;-1.496;2022-08-01T15:34:48;2.50;;;0.98;;
73919;SDS011;62266;53.348;-1.496;2022-08-01T15:37:14;1.30;;;0.90;;
73919;SDS011;62266;53.348;-1.496;2022-08-01T15:39:42;2.03;;;1.13;;